sensor_id;sensor_type;location;lat;lon;timestamp;P1;durP1;ratioP1;P2;durP2;ratioP2
6197;SDS011;3132;42.622;23.328;2022-09-06T00:00:31;14.23;;;13.20;;
6197;SDS011;3132;42.622;23.328;2022-09-06T00:02:58;12.80;;;11.50;;
6197;SDS011;3132;42.622;23.328;2022-09-06T00:05:25;13.80;;;12.90;;
6197;SDS011;3132;42.622;23.328;2022-09-06T00:07:56;13.43;;;12.53;;
6197;SDS011;3132;42.622;23.328;2022-09-06T00:10:24;12.17;;;11.37;;
6197;SDS011;3132;42.622;23.328;2022-09-06T00:12:49;12.83;;;11.90;;
6197;SDS011;3132;42.622;23.328;2022-09-06T00:15:15;12.73;;;11.63;;
6197;SDS011;3132;42.622;23.328;2022-09-06T00:17:40;12.73;;;11.83;;
6197;SDS011;3132;42.622;23.328;2022-09-06T00:20:05;13.70;;;12.60;;
6197;SDS011;3132;42.622;23.328;2022-09-06T00:22:34;13.30;;;12.20;;
6197;SDS011;3132;42.622;23.328;2022-09-06T00:25:01;13.13;;;12.23;;
6197;SDS011;3132;42.622;23.328;2022-09-06T00:27:28;12.23;;;11.40;;
6197;SDS011;3132;42.622;23.328;2022-09-06T00:29:53;13.87;;;12.87;;
6197;SDS011;3132;42.622;23.328;2022-09-06T00:32:19;12.23;;;11.33;;
6197;SDS011;3132;42.622;23.328;2022-09-06T00:34:44;13.50;;;12.50;;
6197;SDS011;3132;42.622;23.328;2022-09-06T00:37:09;13.63;;;12.63;;
6197;SDS011;3132;42.622;23.328;2022-09-06T00:39:35;11.37;;;10.63;;
6197;SDS011;3132;42.622;23.328;2022-09-06T00:42:00;14.20;;;13.07;;
6197;SDS011;3132;42.622;23.328;2022-09-06T00:44:25;12.47;;;11.57;;
6197;SDS011;3132;42.622;23.328;2022-09-06T00:46:51;12.13;;;11.33;;
6197;SDS011;3132;42.622;23.328;2022-09-06T00:49:24;11.63;;;10.83;;
6197;SDS011;3132;42.622;23.328;2022-09-06T00:51:54;13.00;;;12.20;;
6197;SDS011;3132;42.622;23.328;2022-09-06T00:54:23;13.13;;;12.30;;
6197;SDS011;3132;42.622;23.328;2022-09-06T00:56:49;12.70;;;11.57;;
6197;SDS011;3132;42.622;23.328;2022-09-06T00:59:15;12.43;;;11.63;;
6197;SDS011;3132;42.622;23.328;2022-09-06T01:01:41;11.57;;;10.87;;
6197;SDS011;3132;42.622;23.328;2022-09-06T01:04:07;13.17;;;12.07;;
6197;SDS011;3132;42.622;23.328;2022-09-06T01:09:50;13.03;;;12.23;;
6197;SDS011;3132;42.622;23.328;2022-09-06T01:15:32;13.13;;;12.23;;
6197;SDS011;3132;42.622;23.328;2022-09-06T01:23:54;12.40;;;11.60;;
6197;SDS011;3132;42.622;23.328;2022-09-06T01:29:21;13.03;;;12.03;;
6197;SDS011;3132;42.622;23.328;2022-09-06T01:31:49;11.93;;;11.13;;
6197;SDS011;3132;42.622;23.328;2022-09-06T01:34:38;12.57;;;11.77;;
6197;SDS011;3132;42.622;23.328;2022-09-06T01:37:12;12.47;;;11.67;;
6197;SDS011;3132;42.622;23.328;2022-09-06T01:39:40;11.17;;;10.40;;
6197;SDS011;3132;42.622;23.328;2022-09-06T01:44:36;10.83;;;10.13;;
6197;SDS011;3132;42.622;23.328;2022-09-06T01:47:19;13.00;;;12.13;;
6197;SDS011;3132;42.622;23.328;2022-09-06T01:52:45;12.53;;;11.63;;
6197;SDS011;3132;42.622;23.328;2022-09-06T01:55:31;12.03;;;11.30;;
6197;SDS011;3132;42.622;23.328;2022-09-06T02:01:29;11.53;;;10.67;;
6197;SDS011;3132;42.622;23.328;2022-09-06T02:03:59;12.57;;;11.60;;
6197;SDS011;3132;42.622;23.328;2022-09-06T02:06:40;12.27;;;11.47;;
6197;SDS011;3132;42.622;23.328;2022-09-06T02:09:18;11.20;;;10.30;;
6197;SDS011;3132;42.622;23.328;2022-09-06T02:11:48;12.47;;;11.67;;
6197;SDS011;3132;42.622;23.328;2022-09-06T02:14:18;11.47;;;10.77;;
6197;SDS011;3132;42.622;23.328;2022-09-06T02:16:48;11.43;;;10.57;;
6197;SDS011;3132;42.622;23.328;2022-09-06T02:19:19;11.27;;;10.57;;
6197;SDS011;3132;42.622;23.328;2022-09-06T02:21:48;11.33;;;10.63;;
6197;SDS011;3132;42.622;23.328;2022-09-06T02:24:18;11.63;;;10.63;;
6197;SDS011;3132;42.622;23.328;2022-09-06T02:26:47;13.00;;;11.90;;
6197;SDS011;3132;42.622;23.328;2022-09-06T02:29:14;11.70;;;11.00;;
6197;SDS011;3132;42.622;23.328;2022-09-06T02:31:42;10.53;;;9.83;;
6197;SDS011;3132;42.622;23.328;2022-09-06T02:34:15;12.87;;;11.90;;
6197;SDS011;3132;42.622;23.328;2022-09-06T02:36:43;11.57;;;10.83;;
6197;SDS011;3132;42.622;23.328;2022-09-06T02:39:09;12.50;;;11.70;;
6197;SDS011;3132;42.622;23.328;2022-09-06T02:41:36;13.37;;;12.47;;
6197;SDS011;3132;42.622;23.328;2022-09-06T02:44:03;12.87;;;11.97;;
6197;SDS011;3132;42.622;23.328;2022-09-06T02:46:29;12.80;;;11.50;;
6197;SDS011;3132;42.622;23.328;2022-09-06T02:48:54;12.23;;;11.07;;
6197;SDS011;3132;42.622;23.328;2022-09-06T02:51:20;11.73;;;11.03;;
6197;SDS011;3132;42.622;23.328;2022-09-06T02:53:45;13.20;;;12.30;;
6197;SDS011;3132;42.622;23.328;2022-09-06T02:56:11;11.73;;;10.93;;
6197;SDS011;3132;42.622;23.328;2022-09-06T02:58:36;12.53;;;11.73;;
6197;SDS011;3132;42.622;23.328;2022-09-06T03:01:02;13.07;;;12.17;;
6197;SDS011;3132;42.622;23.328;2022-09-06T03:03:28;12.40;;;11.50;;
6197;SDS011;3132;42.622;23.328;2022-09-06T03:05:53;12.47;;;11.47;;
6197;SDS011;3132;42.622;23.328;2022-09-06T03:08:19;11.80;;;11.00;;
6197;SDS011;3132;42.622;23.328;2022-09-06T03:10:50;11.37;;;10.60;;
6197;SDS011;3132;42.622;23.328;2022-09-06T03:13:16;10.93;;;10.23;;
6197;SDS011;3132;42.622;23.328;2022-09-06T03:15:42;13.30;;;12.43;;
6197;SDS011;3132;42.622;23.328;2022-09-06T03:18:08;13.70;;;12.50;;
6197;SDS011;3132;42.622;23.328;2022-09-06T03:20:33;14.10;;;12.77;;
6197;SDS011;3132;42.622;23.328;2022-09-06T03:22:58;13.57;;;12.53;;
6197;SDS011;3132;42.622;23.328;2022-09-06T03:25:24;12.47;;;11.57;;
6197;SDS011;3132;42.622;23.328;2022-09-06T03:27:49;12.23;;;11.37;;
6197;SDS011;3132;42.622;23.328;2022-09-06T03:30:15;12.77;;;11.97;;
6197;SDS011;3132;42.622;23.328;2022-09-06T03:32:41;12.90;;;11.90;;
6197;SDS011;3132;42.622;23.328;2022-09-06T03:35:06;12.47;;;11.37;;
6197;SDS011;3132;42.622;23.328;2022-09-06T03:37:33;12.03;;;11.23;;
6197;SDS011;3132;42.622;23.328;2022-09-06T03:39:58;13.57;;;12.57;;
6197;SDS011;3132;42.622;23.328;2022-09-06T03:42:24;12.70;;;11.67;;
6197;SDS011;3132;42.622;23.328;2022-09-06T03:44:50;12.67;;;11.77;;
6197;SDS011;3132;42.622;23.328;2022-09-06T03:47:16;11.73;;;10.87;;
6197;SDS011;3132;42.622;23.328;2022-09-06T03:49:42;11.90;;;11.07;;
6197;SDS011;3132;42.622;23.328;2022-09-06T03:52:07;12.33;;;11.53;;
6197;SDS011;3132;42.622;23.328;2022-09-06T03:54:32;12.83;;;11.93;;
6197;SDS011;3132;42.622;23.328;2022-09-06T03:56:58;13.73;;;12.53;;
6197;SDS011;3132;42.622;23.328;2022-09-06T03:59:23;12.80;;;11.90;;
6197;SDS011;3132;42.622;23.328;2022-09-06T04:01:48;13.50;;;12.13;;
6197;SDS011;3132;42.622;23.328;2022-09-06T04:04:14;13.43;;;12.13;;
6197;SDS011;3132;42.622;23.328;2022-09-06T04:06:39;12.17;;;11.37;;
6197;SDS011;3132;42.622;23.328;2022-09-06T04:09:04;13.77;;;12.77;;
6197;SDS011;3132;42.622;23.328;2022-09-06T04:11:30;15.67;;;12.03;;
6197;SDS011;3132;42.622;23.328;2022-09-06T04:13:55;12.77;;;11.87;;
6197;SDS011;3132;42.622;23.328;2022-09-06T04:16:20;12.03;;;11.17;;
6197;SDS011;3132;42.622;23.328;2022-09-06T04:18:46;12.03;;;11.23;;
6197;SDS011;3132;42.622;23.328;2022-09-06T04:21:11;12.63;;;11.43;;
6197;SDS011;3132;42.622;23.328;2022-09-06T04:23:37;13.07;;;11.97;;
6197;SDS011;3132;42.622;23.328;2022-09-06T04:26:02;13.20;;;12.13;;
6197;SDS011;3132;42.622;23.328;2022-09-06T04:28:28;12.90;;;11.93;;
6197;SDS011;3132;42.622;23.328;2022-09-06T04:30:54;12.77;;;11.77;;
6197;SDS011;3132;42.622;23.328;2022-09-06T04:33:22;13.40;;;12.17;;
6197;SDS011;3132;42.622;23.328;2022-09-06T04:35:57;13.37;;;12.47;;
6197;SDS011;3132;42.622;23.328;2022-09-06T04:38:25;12.87;;;11.97;;
6197;SDS011;3132;42.622;23.328;2022-09-06T04:40:51;11.50;;;10.80;;
6197;SDS011;3132;42.622;23.328;2022-09-06T04:43:19;12.00;;;11.03;;
6197;SDS011;3132;42.622;23.328;2022-09-06T04:45:45;12.90;;;11.83;;
6197;SDS011;3132;42.622;23.328;2022-09-06T04:48:10;11.97;;;11.17;;
6197;SDS011;3132;42.622;23.328;2022-09-06T04:50:36;12.97;;;12.07;;
6197;SDS011;3132;42.622;23.328;2022-09-06T04:53:02;12.47;;;11.67;;
6197;SDS011;3132;42.622;23.328;2022-09-06T04:55:27;13.37;;;11.73;;
6197;SDS011;3132;42.622;23.328;2022-09-06T04:57:55;12.97;;;11.87;;
6197;SDS011;3132;42.622;23.328;2022-09-06T05:00:24;12.10;;;11.30;;
6197;SDS011;3132;42.622;23.328;2022-09-06T05:02:51;12.87;;;11.87;;
6197;SDS011;3132;42.622;23.328;2022-09-06T05:05:16;12.83;;;11.93;;
6197;SDS011;3132;42.622;23.328;2022-09-06T05:07:42;12.10;;;11.23;;
6197;SDS011;3132;42.622;23.328;2022-09-06T05:10:07;12.23;;;11.23;;
6197;SDS011;3132;42.622;23.328;2022-09-06T05:12:33;14.30;;;13.20;;
6197;SDS011;3132;42.622;23.328;2022-09-06T05:15:00;13.20;;;12.20;;
6197;SDS011;3132;42.622;23.328;2022-09-06T05:17:25;13.20;;;12.20;;
6197;SDS011;3132;42.622;23.328;2022-09-06T05:19:50;12.20;;;11.30;;
6197;SDS011;3132;42.622;23.328;2022-09-06T05:22:16;14.03;;;12.93;;
6197;SDS011;3132;42.622;23.328;2022-09-06T05:24:41;13.40;;;12.33;;
6197;SDS011;3132;42.622;23.328;2022-09-06T05:27:07;12.27;;;11.33;;
6197;SDS011;3132;42.622;23.328;2022-09-06T05:29:32;12.23;;;11.13;;
6197;SDS011;3132;42.622;23.328;2022-09-06T05:31:57;12.67;;;11.73;;
6197;SDS011;3132;42.622;23.328;2022-09-06T05:34:23;12.60;;;11.60;;
6197;SDS011;3132;42.622;23.328;2022-09-06T05:36:48;13.57;;;12.50;;
6197;SDS011;3132;42.622;23.328;2022-09-06T05:39:14;14.07;;;12.87;;
6197;SDS011;3132;42.622;23.328;2022-09-06T05:41:39;14.50;;;13.20;;
6197;SDS011;3132;42.622;23.328;2022-09-06T05:44:04;14.27;;;12.97;;
6197;SDS011;3132;42.622;23.328;2022-09-06T05:46:30;13.93;;;12.53;;
6197;SDS011;3132;42.622;23.328;2022-09-06T05:48:56;14.17;;;12.87;;
6197;SDS011;3132;42.622;23.328;2022-09-06T05:51:25;13.53;;;12.43;;
6197;SDS011;3132;42.622;23.328;2022-09-06T05:53:50;14.80;;;13.50;;
6197;SDS011;3132;42.622;23.328;2022-09-06T05:56:16;12.93;;;11.57;;
6197;SDS011;3132;42.622;23.328;2022-09-06T05:58:41;13.23;;;12.13;;
6197;SDS011;3132;42.622;23.328;2022-09-06T06:01:15;13.70;;;12.53;;
6197;SDS011;3132;42.622;23.328;2022-09-06T06:03:41;13.23;;;12.17;;
6197;SDS011;3132;42.622;23.328;2022-09-06T06:06:07;13.63;;;12.33;;
6197;SDS011;3132;42.622;23.328;2022-09-06T06:08:33;14.33;;;13.10;;
6197;SDS011;3132;42.622;23.328;2022-09-06T06:11:00;13.50;;;12.17;;
6197;SDS011;3132;42.622;23.328;2022-09-06T06:13:26;14.43;;;13.23;;
6197;SDS011;3132;42.622;23.328;2022-09-06T06:15:53;13.17;;;12.13;;
6197;SDS011;3132;42.622;23.328;2022-09-06T06:18:19;13.03;;;11.93;;
6197;SDS011;3132;42.622;23.328;2022-09-06T06:20:45;14.03;;;12.87;;
6197;SDS011;3132;42.622;23.328;2022-09-06T06:23:10;14.23;;;13.03;;
6197;SDS011;3132;42.622;23.328;2022-09-06T06:25:35;13.57;;;12.30;;
6197;SDS011;3132;42.622;23.328;2022-09-06T06:28:01;13.27;;;12.07;;
6197;SDS011;3132;42.622;23.328;2022-09-06T06:30:26;12.87;;;11.77;;
6197;SDS011;3132;42.622;23.328;2022-09-06T06:32:52;13.43;;;12.00;;
6197;SDS011;3132;42.622;23.328;2022-09-06T06:35:17;12.63;;;11.33;;
6197;SDS011;3132;42.622;23.328;2022-09-06T06:37:42;13.27;;;11.97;;
6197;SDS011;3132;42.622;23.328;2022-09-06T06:40:09;14.93;;;13.63;;
6197;SDS011;3132;42.622;23.328;2022-09-06T06:42:35;13.70;;;11.90;;
6197;SDS011;3132;42.622;23.328;2022-09-06T06:45:01;14.63;;;13.23;;
6197;SDS011;3132;42.622;23.328;2022-09-06T06:47:26;14.63;;;12.23;;
6197;SDS011;3132;42.622;23.328;2022-09-06T06:49:51;12.93;;;11.73;;
6197;SDS011;3132;42.622;23.328;2022-09-06T06:52:17;13.33;;;11.93;;
6197;SDS011;3132;42.622;23.328;2022-09-06T06:54:45;13.97;;;12.87;;
6197;SDS011;3132;42.622;23.328;2022-09-06T06:57:10;13.13;;;12.03;;
6197;SDS011;3132;42.622;23.328;2022-09-06T06:59:36;13.23;;;12.23;;
6197;SDS011;3132;42.622;23.328;2022-09-06T07:02:03;12.47;;;11.47;;
6197;SDS011;3132;42.622;23.328;2022-09-06T07:04:29;13.03;;;11.93;;
6197;SDS011;3132;42.622;23.328;2022-09-06T07:06:55;13.37;;;12.17;;
6197;SDS011;3132;42.622;23.328;2022-09-06T07:09:21;13.17;;;11.97;;
6197;SDS011;3132;42.622;23.328;2022-09-06T07:11:47;12.80;;;11.60;;
6197;SDS011;3132;42.622;23.328;2022-09-06T07:14:13;12.47;;;11.30;;
6197;SDS011;3132;42.622;23.328;2022-09-06T07:16:39;13.63;;;12.43;;
6197;SDS011;3132;42.622;23.328;2022-09-06T07:19:04;15.03;;;12.17;;
6197;SDS011;3132;42.622;23.328;2022-09-06T07:21:30;12.77;;;11.47;;
6197;SDS011;3132;42.622;23.328;2022-09-06T07:23:55;13.20;;;11.90;;
6197;SDS011;3132;42.622;23.328;2022-09-06T07:26:22;12.63;;;11.63;;
6197;SDS011;3132;42.622;23.328;2022-09-06T07:28:59;13.97;;;12.33;;
6197;SDS011;3132;42.622;23.328;2022-09-06T07:31:27;13.53;;;12.40;;
6197;SDS011;3132;42.622;23.328;2022-09-06T07:33:53;14.23;;;12.70;;
6197;SDS011;3132;42.622;23.328;2022-09-06T07:36:18;13.80;;;12.53;;
6197;SDS011;3132;42.622;23.328;2022-09-06T07:38:48;14.00;;;12.77;;
6197;SDS011;3132;42.622;23.328;2022-09-06T07:41:14;13.63;;;12.53;;
6197;SDS011;3132;42.622;23.328;2022-09-06T07:43:41;14.03;;;12.63;;
6197;SDS011;3132;42.622;23.328;2022-09-06T07:46:07;13.60;;;12.43;;
6197;SDS011;3132;42.622;23.328;2022-09-06T07:48:35;14.77;;;13.43;;
6197;SDS011;3132;42.622;23.328;2022-09-06T07:51:23;14.87;;;13.53;;
6197;SDS011;3132;42.622;23.328;2022-09-06T07:53:51;14.20;;;12.80;;
6197;SDS011;3132;42.622;23.328;2022-09-06T07:56:19;13.50;;;12.30;;
6197;SDS011;3132;42.622;23.328;2022-09-06T07:58:48;12.97;;;11.67;;
6197;SDS011;3132;42.622;23.328;2022-09-06T08:03:49;14.23;;;13.10;;
6197;SDS011;3132;42.622;23.328;2022-09-06T08:06:14;23.93;;;12.87;;
6197;SDS011;3132;42.622;23.328;2022-09-06T08:08:39;15.77;;;12.40;;
6197;SDS011;3132;42.622;23.328;2022-09-06T08:11:05;13.67;;;12.43;;
6197;SDS011;3132;42.622;23.328;2022-09-06T08:13:32;14.07;;;12.97;;
6197;SDS011;3132;42.622;23.328;2022-09-06T08:15:58;12.93;;;11.93;;
6197;SDS011;3132;42.622;23.328;2022-09-06T08:18:24;12.97;;;11.83;;
6197;SDS011;3132;42.622;23.328;2022-09-06T08:20:50;12.90;;;11.80;;
6197;SDS011;3132;42.622;23.328;2022-09-06T08:23:15;12.90;;;11.83;;
6197;SDS011;3132;42.622;23.328;2022-09-06T08:25:40;12.67;;;11.67;;
6197;SDS011;3132;42.622;23.328;2022-09-06T08:28:06;12.77;;;11.57;;
6197;SDS011;3132;42.622;23.328;2022-09-06T08:30:31;13.27;;;11.90;;
6197;SDS011;3132;42.622;23.328;2022-09-06T08:32:57;12.77;;;11.80;;
6197;SDS011;3132;42.622;23.328;2022-09-06T08:35:22;12.33;;;11.43;;
6197;SDS011;3132;42.622;23.328;2022-09-06T08:37:48;13.10;;;11.80;;
6197;SDS011;3132;42.622;23.328;2022-09-06T08:40:13;12.97;;;11.67;;
6197;SDS011;3132;42.622;23.328;2022-09-06T08:42:45;12.10;;;11.20;;
6197;SDS011;3132;42.622;23.328;2022-09-06T08:45:12;12.17;;;11.27;;
6197;SDS011;3132;42.622;23.328;2022-09-06T08:47:43;11.67;;;10.77;;
6197;SDS011;3132;42.622;23.328;2022-09-06T08:50:08;12.67;;;11.33;;
6197;SDS011;3132;42.622;23.328;2022-09-06T08:53:08;11.77;;;10.83;;
6197;SDS011;3132;42.622;23.328;2022-09-06T09:01:00;11.23;;;10.53;;
6197;SDS011;3132;42.622;23.328;2022-09-06T09:03:47;11.43;;;10.17;;
6197;SDS011;3132;42.622;23.328;2022-09-06T09:06:12;10.50;;;9.77;;
6197;SDS011;3132;42.622;23.328;2022-09-06T09:11:26;10.07;;;9.47;;
6197;SDS011;3132;42.622;23.328;2022-09-06T09:14:03;11.20;;;10.40;;
6197;SDS011;3132;42.622;23.328;2022-09-06T09:16:28;11.63;;;10.80;;
6197;SDS011;3132;42.622;23.328;2022-09-06T09:18:55;10.93;;;10.00;;
6197;SDS011;3132;42.622;23.328;2022-09-06T09:21:23;10.27;;;9.57;;
6197;SDS011;3132;42.622;23.328;2022-09-06T09:23:54;10.65;;;9.75;;
6197;SDS011;3132;42.622;23.328;2022-09-06T09:26:23;10.40;;;9.70;;
6197;SDS011;3132;42.622;23.328;2022-09-06T09:31:49;12.02;;;11.13;;
6197;SDS011;3132;42.622;23.328;2022-09-06T09:34:33;11.43;;;10.65;;
6197;SDS011;3132;42.622;23.328;2022-09-06T09:39:40;11.40;;;10.60;;
6197;SDS011;3132;42.622;23.328;2022-09-06T09:42:06;11.30;;;10.50;;
6197;SDS011;3132;42.622;23.328;2022-09-06T09:44:33;11.20;;;10.50;;
6197;SDS011;3132;42.622;23.328;2022-09-06T09:46:59;11.73;;;10.82;;
6197;SDS011;3132;42.622;23.328;2022-09-06T09:49:34;11.32;;;10.52;;
6197;SDS011;3132;42.622;23.328;2022-09-06T09:52:09;11.57;;;10.77;;
6197;SDS011;3132;42.622;23.328;2022-09-06T09:54:37;11.52;;;10.75;;
6197;SDS011;3132;42.622;23.328;2022-09-06T09:57:09;11.10;;;10.40;;
6197;SDS011;3132;42.622;23.328;2022-09-06T09:59:49;10.52;;;9.82;;
6197;SDS011;3132;42.622;23.328;2022-09-06T10:02:29;9.85;;;9.10;;
6197;SDS011;3132;42.622;23.328;2022-09-06T10:04:59;11.23;;;10.30;;
6197;SDS011;3132;42.622;23.328;2022-09-06T10:07:26;13.82;;;12.27;;
6197;SDS011;3132;42.622;23.328;2022-09-06T10:10:00;12.48;;;11.27;;
6197;SDS011;3132;42.622;23.328;2022-09-06T10:12:32;11.05;;;10.27;;
6197;SDS011;3132;42.622;23.328;2022-09-06T10:14:59;11.85;;;10.88;;
6197;SDS011;3132;42.622;23.328;2022-09-06T10:19:50;12.02;;;10.98;;
6197;SDS011;3132;42.622;23.328;2022-09-06T10:36:06;9.30;;;8.70;;
6197;SDS011;3132;42.622;23.328;2022-09-06T10:38:37;9.63;;;9.02;;
6197;SDS011;3132;42.622;23.328;2022-09-06T10:43:32;9.80;;;9.20;;
6197;SDS011;3132;42.622;23.328;2022-09-06T10:46:13;8.60;;;8.10;;
6197;SDS011;3132;42.622;23.328;2022-09-06T10:48:40;9.88;;;9.25;;
6197;SDS011;3132;42.622;23.328;2022-09-06T10:59:23;9.38;;;8.77;;
6197;SDS011;3132;42.622;23.328;2022-09-06T11:04:41;8.55;;;8.05;;
6197;SDS011;3132;42.622;23.328;2022-09-06T11:21:35;9.77;;;9.18;;
6197;SDS011;3132;42.622;23.328;2022-09-06T11:23:50;9.98;;;9.35;;
6197;SDS011;3132;42.622;23.328;2022-09-06T11:26:39;10.15;;;9.43;;
6197;SDS011;3132;42.622;23.328;2022-09-06T11:29:15;9.63;;;9.02;;
6197;SDS011;3132;42.622;23.328;2022-09-06T11:34:27;10.70;;;9.68;;
6197;SDS011;3132;42.622;23.328;2022-09-06T11:39:27;11.05;;;10.35;;
6197;SDS011;3132;42.622;23.328;2022-09-06T11:41:56;9.57;;;8.93;;
6197;SDS011;3132;42.622;23.328;2022-09-06T11:47:44;9.77;;;9.18;;
6197;SDS011;3132;42.622;23.328;2022-09-06T11:55:20;9.38;;;8.65;;
6197;SDS011;3132;42.622;23.328;2022-09-06T11:57:55;9.50;;;8.82;;
6197;SDS011;3132;42.622;23.328;2022-09-06T12:00:23;8.95;;;8.35;;
6197;SDS011;3132;42.622;23.328;2022-09-06T12:02:49;8.15;;;7.72;;
6197;SDS011;3132;42.622;23.328;2022-09-06T12:10:59;9.13;;;8.52;;
6197;SDS011;3132;42.622;23.328;2022-09-06T12:13:40;8.68;;;8.18;;
6197;SDS011;3132;42.622;23.328;2022-09-06T12:16:24;9.13;;;8.63;;
6197;SDS011;3132;42.622;23.328;2022-09-06T12:19:09;8.85;;;8.05;;
6197;SDS011;3132;42.622;23.328;2022-09-06T12:24:52;9.77;;;8.98;;
6197;SDS011;3132;42.622;23.328;2022-09-06T12:32:39;8.75;;;8.25;;
6197;SDS011;3132;42.622;23.328;2022-09-06T12:35:11;9.27;;;8.65;;
6197;SDS011;3132;42.622;23.328;2022-09-06T12:40:22;9.00;;;8.40;;
6197;SDS011;3132;42.622;23.328;2022-09-06T12:42:49;9.48;;;8.80;;
6197;SDS011;3132;42.622;23.328;2022-09-06T12:45:16;8.77;;;8.18;;
6197;SDS011;3132;42.622;23.328;2022-09-06T12:47:43;9.32;;;8.75;;
6197;SDS011;3132;42.622;23.328;2022-09-06T12:50:14;8.63;;;8.00;;
6197;SDS011;3132;42.622;23.328;2022-09-06T12:55:14;8.32;;;7.93;;
6197;SDS011;3132;42.622;23.328;2022-09-06T12:57:46;8.05;;;7.57;;
6197;SDS011;3132;42.622;23.328;2022-09-06T13:00:13;9.27;;;8.57;;
6197;SDS011;3132;42.622;23.328;2022-09-06T13:02:46;8.50;;;8.00;;
6197;SDS011;3132;42.622;23.328;2022-09-06T13:05:14;8.57;;;8.07;;
6197;SDS011;3132;42.622;23.328;2022-09-06T13:07:42;8.45;;;7.95;;
6197;SDS011;3132;42.622;23.328;2022-09-06T13:10:12;9.35;;;8.50;;
6197;SDS011;3132;42.622;23.328;2022-09-06T13:12:41;8.52;;;8.02;;
6197;SDS011;3132;42.622;23.328;2022-09-06T13:15:13;8.70;;;8.20;;
6197;SDS011;3132;42.622;23.328;2022-09-06T13:17:43;8.15;;;7.55;;
6197;SDS011;3132;42.622;23.328;2022-09-06T13:20:30;7.70;;;7.30;;
6197;SDS011;3132;42.622;23.328;2022-09-06T13:23:08;8.40;;;7.68;;
6197;SDS011;3132;42.622;23.328;2022-09-06T13:25:49;8.95;;;8.45;;
6197;SDS011;3132;42.622;23.328;2022-09-06T13:28:26;8.57;;;8.07;;
6197;SDS011;3132;42.622;23.328;2022-09-06T13:33:34;7.85;;;7.45;;
6197;SDS011;3132;42.622;23.328;2022-09-06T13:41:02;8.23;;;7.72;;
6197;SDS011;3132;42.622;23.328;2022-09-06T13:43:28;8.05;;;7.65;;
6197;SDS011;3132;42.622;23.328;2022-09-06T13:46:07;8.40;;;7.80;;
6197;SDS011;3132;42.622;23.328;2022-09-06T13:48:34;8.25;;;7.75;;
6197;SDS011;3132;42.622;23.328;2022-09-06T13:51:02;8.60;;;8.18;;
6197;SDS011;3132;42.622;23.328;2022-09-06T13:53:29;7.90;;;7.50;;
6197;SDS011;3132;42.622;23.328;2022-09-06T13:55:55;8.13;;;7.63;;
6197;SDS011;3132;42.622;23.328;2022-09-06T13:58:23;8.10;;;7.60;;
6197;SDS011;3132;42.622;23.328;2022-09-06T14:00:48;8.13;;;7.65;;
6197;SDS011;3132;42.622;23.328;2022-09-06T14:03:19;7.43;;;7.03;;
6197;SDS011;3132;42.622;23.328;2022-09-06T14:05:48;8.05;;;7.60;;
6197;SDS011;3132;42.622;23.328;2022-09-06T14:08:14;8.30;;;7.80;;
6197;SDS011;3132;42.622;23.328;2022-09-06T14:10:40;8.48;;;7.80;;
6197;SDS011;3132;42.622;23.328;2022-09-06T14:13:06;11.38;;;10.57;;
6197;SDS011;3132;42.622;23.328;2022-09-06T14:15:32;8.07;;;7.68;;
6197;SDS011;3132;42.622;23.328;2022-09-06T14:17:57;7.82;;;7.43;;
6197;SDS011;3132;42.622;23.328;2022-09-06T14:20:23;8.13;;;7.63;;
6197;SDS011;3132;42.622;23.328;2022-09-06T14:22:48;7.50;;;7.00;;
6197;SDS011;3132;42.622;23.328;2022-09-06T14:25:13;7.43;;;7.03;;
6197;SDS011;3132;42.622;23.328;2022-09-06T14:27:39;8.00;;;7.30;;
6197;SDS011;3132;42.622;23.328;2022-09-06T14:30:04;7.97;;;7.68;;
6197;SDS011;3132;42.622;23.328;2022-09-06T14:32:30;8.40;;;7.78;;
6197;SDS011;3132;42.622;23.328;2022-09-06T14:34:55;7.68;;;7.15;;
6197;SDS011;3132;42.622;23.328;2022-09-06T14:37:21;7.88;;;7.28;;
6197;SDS011;3132;42.622;23.328;2022-09-06T14:39:46;8.05;;;7.45;;
6197;SDS011;3132;42.622;23.328;2022-09-06T14:42:13;7.90;;;7.50;;
6197;SDS011;3132;42.622;23.328;2022-09-06T14:44:38;7.72;;;7.03;;
6197;SDS011;3132;42.622;23.328;2022-09-06T14:47:03;7.80;;;7.40;;
6197;SDS011;3132;42.622;23.328;2022-09-06T14:49:29;7.85;;;7.35;;
6197;SDS011;3132;42.622;23.328;2022-09-06T14:51:55;9.10;;;8.60;;
6197;SDS011;3132;42.622;23.328;2022-09-06T14:54:20;10.20;;;7.38;;
6197;SDS011;3132;42.622;23.328;2022-09-06T14:56:46;8.63;;;7.88;;
6197;SDS011;3132;42.622;23.328;2022-09-06T14:59:12;7.95;;;7.45;;
6197;SDS011;3132;42.622;23.328;2022-09-06T15:01:38;8.23;;;7.63;;
6197;SDS011;3132;42.622;23.328;2022-09-06T15:04:06;8.40;;;7.78;;
6197;SDS011;3132;42.622;23.328;2022-09-06T15:06:33;8.38;;;7.68;;
6197;SDS011;3132;42.622;23.328;2022-09-06T15:09:01;7.50;;;7.00;;
6197;SDS011;3132;42.622;23.328;2022-09-06T15:13:58;7.88;;;7.38;;
6197;SDS011;3132;42.622;23.328;2022-09-06T15:16:24;8.38;;;7.68;;
6197;SDS011;3132;42.622;23.328;2022-09-06T15:18:50;8.35;;;7.85;;
6197;SDS011;3132;42.622;23.328;2022-09-06T15:21:17;8.18;;;7.68;;
6197;SDS011;3132;42.622;23.328;2022-09-06T15:23:43;9.13;;;8.30;;
6197;SDS011;3132;42.622;23.328;2022-09-06T15:26:09;8.32;;;7.88;;
6197;SDS011;3132;42.622;23.328;2022-09-06T15:28:36;8.55;;;8.05;;
6197;SDS011;3132;42.622;23.328;2022-09-06T15:31:03;8.57;;;8.00;;
6197;SDS011;3132;42.622;23.328;2022-09-06T15:33:30;8.52;;;8.02;;
6197;SDS011;3132;42.622;23.328;2022-09-06T15:35:56;9.18;;;8.68;;
6197;SDS011;3132;42.622;23.328;2022-09-06T15:38:22;8.50;;;8.00;;
6197;SDS011;3132;42.622;23.328;2022-09-06T15:40:48;8.25;;;7.85;;
6197;SDS011;3132;42.622;23.328;2022-09-06T15:43:13;7.70;;;7.30;;
6197;SDS011;3132;42.622;23.328;2022-09-06T15:45:46;9.10;;;8.25;;
6197;SDS011;3132;42.622;23.328;2022-09-06T15:48:13;8.30;;;7.88;;
6197;SDS011;3132;42.622;23.328;2022-09-06T15:50:40;9.35;;;8.25;;
6197;SDS011;3132;42.622;23.328;2022-09-06T15:53:06;9.15;;;8.45;;
6197;SDS011;3132;42.622;23.328;2022-09-06T15:55:31;8.38;;;7.90;;
6197;SDS011;3132;42.622;23.328;2022-09-06T15:58:15;8.90;;;8.02;;
6197;SDS011;3132;42.622;23.328;2022-09-06T16:00:40;9.18;;;8.68;;
6197;SDS011;3132;42.622;23.328;2022-09-06T16:03:06;9.70;;;8.98;;
6197;SDS011;3132;42.622;23.328;2022-09-06T16:05:33;8.93;;;8.07;;
6197;SDS011;3132;42.622;23.328;2022-09-06T16:07:59;8.68;;;8.18;;
6197;SDS011;3132;42.622;23.328;2022-09-06T16:10:24;9.07;;;8.27;;
6197;SDS011;3132;42.622;23.328;2022-09-06T16:12:50;10.52;;;9.68;;
6197;SDS011;3132;42.622;23.328;2022-09-06T16:15:15;8.85;;;8.35;;
6197;SDS011;3132;42.622;23.328;2022-09-06T16:17:41;9.07;;;8.48;;
6197;SDS011;3132;42.622;23.328;2022-09-06T16:20:07;9.63;;;8.70;;
6197;SDS011;3132;42.622;23.328;2022-09-06T16:22:33;9.00;;;8.50;;
6197;SDS011;3132;42.622;23.328;2022-09-06T16:24:58;8.77;;;8.25;;
6197;SDS011;3132;42.622;23.328;2022-09-06T16:27:24;9.43;;;8.73;;
6197;SDS011;3132;42.622;23.328;2022-09-06T16:29:49;9.40;;;8.73;;
6197;SDS011;3132;42.622;23.328;2022-09-06T16:32:15;10.63;;;9.80;;
6197;SDS011;3132;42.622;23.328;2022-09-06T16:34:41;10.07;;;9.38;;
6197;SDS011;3132;42.622;23.328;2022-09-06T16:37:06;10.18;;;9.35;;
6197;SDS011;3132;42.622;23.328;2022-09-06T16:39:32;9.90;;;9.20;;
6197;SDS011;3132;42.622;23.328;2022-09-06T16:41:58;9.50;;;8.82;;
6197;SDS011;3132;42.622;23.328;2022-09-06T16:44:25;9.63;;;8.98;;
6197;SDS011;3132;42.622;23.328;2022-09-06T16:46:51;10.73;;;10.02;;
6197;SDS011;3132;42.622;23.328;2022-09-06T16:49:17;9.63;;;8.82;;
6197;SDS011;3132;42.622;23.328;2022-09-06T16:51:44;12.23;;;11.23;;
6197;SDS011;3132;42.622;23.328;2022-09-06T16:54:10;10.52;;;9.60;;